AirAsia A320 at Kuala Lumpur on Nov 30th 2017, overran runway on landing

Last Update: December 14, 2017 / 13:56:26 GMT/Zulu time

Bookmark this article
Incident Facts

Date of incident
Nov 30, 2017

Classification
Incident

Airline
AirAsia

Aircraft Registration
9M-AHM

Aircraft Type
Airbus A320

ICAO Type Designator
A320

An Air Asia Airbus A320-200, registration 9M-AHM performing endorsement flight AK-9700 from Kuala Lumpur International to Kuala Lumpur Sultan Abdul Aziz Shah (Malaysia) with 4 crew, landed on Kuala Lumpur Sultan Abdul Aziz Shah Airport (formerly known as Subang Airport) runway 15 at 05:55L (21:55Z Nov 29th) but overran the end of the runway and came to a stop with all gear on soft ground about 130 meters past the runway end and about 70 meters past the paved surface of the runway end safety area. There were no injuries, the aircraft received minor if any damage.

The airline confirmed the overrun of their endorsement flight with 4 crew on board, there were no injuries and no damage to the aircraft.

Malaysia's DCA opened an investigation.

On Dec 14th 2017 Malaysia's DGCA reported the aircraft was doing touch and gos at Subang Airport. On the third touch and go the crew rejected the takeoff, the aircraft overran runway 15 and came to a stop in the grass area. The occurrence was rated a serious incident.

Related NOTAM:
A3833/17 NOTAMN
Q) WMFC/QMRLC/IV/NBO/A /000/999/0307N10132E005
A) WMSA B) 1711300155 C) 1711302359
E) RWY 33 CLSD

Metars:
WMSA 300000Z 31005KT 280V010 9999 FEW005 FEW017CB SCT140 BKN260 24/23 Q1008=
WMSA 292300Z 32003KT 280V030 9999 FEW003 SCT140 BKN260 24/23 Q1007=
WMSA 292200Z 32005KT 280V010 7000 -RA FEW005 SCT140 BKN260 24/23 Q1007=
WMSA 292100Z 32004KT 260V030 7000 -RA FEW005 SCT140 OVC260 24/23 Q1006=
WMSA 292000Z 30005KT 8000 -RA FEW008 SCT140 OVC260 24/23 Q1007=
WMSA 291900Z 30005KT 280V350 9000 -RA FEW008 SCT140 OVC260 24/23 Q1007=
WMSA 291800Z 35005KT 300V030 9000 -RA FEW008 SCT140 OVC260 24/23 Q1008=
WMSA 291700Z 33005KT 240V050 9000 -RA FEW008 SCT140 OVC260 24/23 Q1009=
Incident Facts

Date of incident
Nov 30, 2017

Classification
Incident

Airline
AirAsia

Aircraft Registration
9M-AHM

Aircraft Type
Airbus A320

ICAO Type Designator
A320

This article is published under license from Avherald.com. © of text by Avherald.com.
Article source

You can read 2 more free articles without a subscription.

Subscribe now and continue reading without any limits!

Are you a subscriber? Login
Subscribe

Read unlimited articles and receive our daily update briefing. Gain better insights into what is happening in commercial aviation safety.

Free newsletter

Want to know more and stay ahead? Get our free weekly newsletter and join 5461 existing subscribers.

By subscribing, you accept our terms and conditions and confirm that you've read our privacy policy.

Send tip

Support AeroInside by sending a small tip amount.

Related articles

Newest articles

Subscribe today

Are you researching aviation incidents? Get access to AeroInside Insights, unlimited read access and receive the daily newsletter.

Pick your plan and subscribe

Partner

Blockaviation logo

A new way to document and demonstrate airworthiness compliance and aircraft value. Find out more.

Virtual Speech logo

ELITE Simulation Solutions is a leading global provider of Flight Simulation Training Devices, IFR training software as well as flight controls and related services. Find out more.

Get updates

Never miss an article from AeroInside. Subscribe to our free weekly newsletter and join 5461 existing subscribers.

By subscribing, you accept our terms and conditions and that you've read our privacy policy.

AeroInside Blog
Popular aircraft
Airbus A320
Boeing 737-800
Boeing 737-800 MAX
Popular airlines
American Airlines
United
Delta
Air Canada
Lufthansa
British Airways